Main page
METAR-TAF:

METAR-TAF

Airports :

Silvio Pettirossi International Airport

Asunción, Paraguay

latitude: 25-16S, longitude: 057-38W, elevation: 101 m

Current weather observation

The report was made 35 minutes ago, at 11:00 UTC
Calm wind
Temperature 17°C
Humidity 94%
Pressure 1020 hPa
Visibility 10 km or more
no clouds below 1500 m and no cumulonimbus

METAR: SGAS 091100Z 00000KT CAVOK 17/16 Q1020

Time: 07:35 (11:35 UTC)

Forecast

The report was made 1 hour and 5 minutes ago, at 10:30 UTC
Forecast valid from 09 at 12 UTC to 10 at 12 UTC
Wind 2 kt from variable directions
Visibility 10 km or more
Scattered clouds at a height of 2700 ft
Becoming
from 09 at 15 UTC to 09 at 18 UTC
Wind 8 kt from the Northeast
Visibility 10 km or more
no clouds below 1500 m and no cumulonimbus
Becoming
from 10 at 00 UTC to 10 at 03 UTC
Wind 2 kt from variable directions

TAF: SGAS 091030Z 0912/1012 VRB02KT 9999 SCT027 TX28/0918Z TN18/1010Z BECMG 0915/0918 05008KT CAVOK BECMG 1000/1003 VRB02KT

Weather observations and forecasts of more than 4000 airports (METAR and TAF reports).

The available stations are represented by yellow and red dots on the map.

Hover mouse over dot to see the name of the station.

Then click to see weather observations and forecasts.

To change the map : click on the green buttons with a black cross to zoom in, on the green button with a dash to zoom out, or on the green arrows for adjacent maps.


METAR-TAF: